Time;durP1;ratioP1;P1;durP2;ratioP2;P2;SDS_P1;SDS_P2;PMS_P1;PMS_P2;Temp;Humidity;BMP_temperature;BMP_pressure;BME280_temperature;BME280_humidity;BME280_pressure;Samples;Min_cycle;Max_cycle;Signal;HPM_P1;HPM_P2
2024/04/17 00:01:59;;;;;;;;;;;;;;;23.62;37.99;99234.88;102971;1292;62215;-78
2024/04/17 00:04:24;;;;;;;;;;;;;;;23.61;38.00;99228.66;103103;1294;62190;-78
2024/04/17 00:06:50;;;;;;;;;;;;;;;23.61;38.07;99216.77;103127;1289;62821;-76
2024/04/17 00:09:15;;;;;;;;;;;;;;;23.61;38.08;99229.89;103018;1295;63425;-77
2024/04/17 00:11:41;;;;;;;;;;;;;;;23.60;38.08;99239.46;103146;1292;62202;-78
2024/04/17 00:14:07;;;;;;;;;;;;;;;23.61;38.02;99253.97;103076;1292;72226;-78
2024/04/17 00:16:32;;;;;;;;;;;;;;;23.61;38.08;99264.03;103155;1292;62202;-79
2024/04/17 00:18:58;;;;;;;;;;;;;;;23.61;38.13;99251.31;103123;1289;62211;-78
2024/04/17 00:21:23;;;;;;;;;;;;;;;23.61;38.06;99243.53;103071;1292;62590;-78
2024/04/17 00:23:50;;;;;;;;;;;;;;;23.60;38.04;99247.92;103022;1292;63323;-78
2024/04/17 00:26:15;;;;;;;;;;;;;;;23.60;38.16;99243.98;102962;1292;73204;-78
2024/04/17 00:28:41;;;;;;;;;;;;;;;23.60;38.18;99244.00;103159;1292;62194;-80
2024/04/17 00:31:06;;;;;;;;;;;;;;;23.60;38.17;99247.95;102905;1292;62111;-77
2024/04/17 00:33:32;;;;;;;;;;;;;;;23.60;38.17;99256.60;103046;1292;62612;-77
2024/04/17 00:35:57;;;;;;;;;;;;;;;23.60;38.20;99257.81;103213;1292;63286;-78
2024/04/17 00:38:23;;;;;;;;;;;;;;;23.60;38.17;99259.66;103142;1292;63783;-78
2024/04/17 00:40:48;;;;;;;;;;;;;;;23.60;38.21;99254.10;103216;1292;63281;-78
2024/04/17 00:43:14;;;;;;;;;;;;;;;23.59;38.19;99257.70;103142;1290;62210;-78
2024/04/17 00:45:41;;;;;;;;;;;;;;;23.60;38.28;99256.23;103139;1294;62185;-78
2024/04/17 00:48:08;;;;;;;;;;;;;;;23.60;38.28;99264.14;103258;1292;62100;-76
2024/04/17 00:50:34;;;;;;;;;;;;;;;23.59;38.17;99267.07;103120;1290;62198;-78
2024/04/17 00:52:59;;;;;;;;;;;;;;;23.60;38.29;99271.88;102927;1294;62226;-77
2024/04/17 00:55:25;;;;;;;;;;;;;;;23.59;38.25;99278.02;102986;1292;62206;-78
2024/04/17 00:57:50;;;;;;;;;;;;;;;23.59;38.28;99279.99;102994;1292;62224;-78
2024/04/17 01:00:16;;;;;;;;;;;;;;;23.59;38.38;99279.80;103145;1292;62265;-77
2024/04/17 01:02:41;;;;;;;;;;;;;;;23.59;38.32;99273.36;103154;1292;62200;-78
2024/04/17 01:05:07;;;;;;;;;;;;;;;23.59;38.31;99264.95;103030;1294;62211;-78
2024/04/17 01:07:33;;;;;;;;;;;;;;;23.59;38.38;99254.84;103175;1289;63389;-78
2024/04/17 01:09:58;;;;;;;;;;;;;;;23.59;38.28;99249.99;102904;1292;62192;-78
2024/04/17 01:12:24;;;;;;;;;;;;;;;23.59;38.37;99251.52;103106;1292;62184;-78
2024/04/17 01:17:54;;;;;;;;;;;;;;;23.58;38.40;99255.14;103115;1292;62111;-78
2024/04/17 01:20:19;;;;;;;;;;;;;;;23.59;38.45;99259.05;102929;1292;62219;-78
2024/04/17 01:22:45;;;;;;;;;;;;;;;23.58;38.45;99257.84;102936;1294;63431;-77
2024/04/17 01:25:10;;;;;;;;;;;;;;;23.58;38.48;99262.31;102990;1292;63121;-78
2024/04/17 01:27:36;;;;;;;;;;;;;;;23.58;38.37;99259.82;103122;1291;62192;-78
2024/04/17 01:30:01;;;;;;;;;;;;;;;23.58;38.44;99263.55;102982;1291;62200;-77
2024/04/17 01:32:28;;;;;;;;;;;;;;;23.58;38.47;99269.70;102929;1292;62288;-77
2024/04/17 01:34:53;;;;;;;;;;;;;;;23.58;38.47;99271.15;102926;1294;63248;-77
2024/04/17 01:37:19;;;;;;;;;;;;;;;23.58;38.46;99263.59;102914;1289;62206;-77
2024/04/17 01:39:45;;;;;;;;;;;;;;;23.58;38.49;99253.20;103004;1294;62177;-77
2024/04/17 01:42:11;;;;;;;;;;;;;;;23.58;38.54;99248.52;103230;1292;62229;-78
2024/04/17 01:44:36;;;;;;;;;;;;;;;23.58;38.52;99241.88;103239;1292;62226;-77
2024/04/17 01:47:02;;;;;;;;;;;;;;;23.58;38.51;99234.90;103051;1294;62117;-78
2024/04/17 01:49:27;;;;;;;;;;;;;;;23.58;38.55;99226.86;103166;1292;62213;-78
2024/04/17 01:51:53;;;;;;;;;;;;;;;23.57;38.54;99220.92;102939;1294;63458;-78
2024/04/17 01:54:18;;;;;;;;;;;;;;;23.58;38.53;99216.92;103121;1292;62194;-76
2024/04/17 01:56:44;;;;;;;;;;;;;;;23.57;38.55;99214.66;102915;1296;62204;-78
2024/04/17 01:59:09;;;;;;;;;;;;;;;23.57;38.54;99230.45;102898;1290;72489;-78
2024/04/17 02:01:35;;;;;;;;;;;;;;;23.58;38.55;99237.63;103007;1292;62241;-78
2024/04/17 02:04:00;;;;;;;;;;;;;;;23.57;38.56;99237.50;102922;1292;62214;-78
2024/04/17 02:06:27;;;;;;;;;;;;;;;23.57;38.61;99232.11;103060;1289;62198;-77
2024/04/17 02:08:53;;;;;;;;;;;;;;;23.57;38.53;99236.62;102879;1292;63201;-78
2024/04/17 02:11:18;;;;;;;;;;;;;;;23.57;38.57;99235.58;103016;1294;63284;-78
2024/04/17 02:13:43;;;;;;;;;;;;;;;23.57;38.57;99219.95;102886;1294;76297;-78
2024/04/17 02:16:09;;;;;;;;;;;;;;;23.56;38.59;99181.54;103123;1294;63366;-77
2024/04/17 02:18:34;;;;;;;;;;;;;;;23.57;38.67;99170.23;102933;1296;63519;-77
2024/04/17 02:21:01;;;;;;;;;;;;;;;23.56;38.47;99182.31;102878;1294;62192;-79
2024/04/17 02:23:37;;;;;;;;;;;;;;;23.56;38.64;99183.39;102930;1291;62266;-77
2024/04/17 02:26:02;;;;;;;;;;;;;;;23.56;38.71;99185.55;102386;1289;738105;-78
2024/04/17 02:28:28;;;;;;;;;;;;;;;23.56;38.66;99194.88;102902;1292;62255;-78
2024/04/17 02:30:53;;;;;;;;;;;;;;;23.56;38.63;99192.34;102898;1292;63362;-77
2024/04/17 02:33:18;;;;;;;;;;;;;;;23.56;38.62;99193.29;103143;1294;62199;-77
2024/04/17 02:35:44;;;;;;;;;;;;;;;23.56;38.66;99187.34;103151;1289;62136;-77
2024/04/17 02:38:09;;;;;;;;;;;;;;;23.56;38.66;99183.95;103130;1292;62108;-78
2024/04/17 02:40:35;;;;;;;;;;;;;;;23.56;38.73;99179.62;103102;1292;62264;-78
2024/04/17 02:43:01;;;;;;;;;;;;;;;23.56;38.71;99173.73;103176;1294;63620;-78
2024/04/17 02:45:26;;;;;;;;;;;;;;;23.55;38.71;99176.81;102915;1294;62197;-78
2024/04/17 02:47:52;;;;;;;;;;;;;;;23.56;38.75;99174.80;102946;1294;62124;-78
2024/04/17 02:50:17;;;;;;;;;;;;;;;23.55;38.76;99173.21;103061;1291;62206;-78
2024/04/17 02:52:43;;;;;;;;;;;;;;;23.55;38.71;99171.77;102974;1292;63323;-78
2024/04/17 02:55:08;;;;;;;;;;;;;;;23.55;38.78;99167.09;103137;1294;62161;-77
2024/04/17 02:57:34;;;;;;;;;;;;;;;23.55;38.81;99166.61;103105;1292;62815;-77
2024/04/17 02:59:59;;;;;;;;;;;;;;;23.55;38.79;99164.63;102992;1292;62193;-79
2024/04/17 03:02:24;;;;;;;;;;;;;;;23.55;38.77;99163.41;103192;1294;62212;-78
2024/04/17 03:04:50;;;;;;;;;;;;;;;23.55;38.83;99165.71;102931;1291;62271;-78
2024/04/17 03:07:15;;;;;;;;;;;;;;;23.55;38.79;99161.63;103002;1292;63282;-78
2024/04/17 03:09:41;;;;;;;;;;;;;;;23.55;38.73;99159.84;102944;1292;62281;-78
2024/04/17 03:12:07;;;;;;;;;;;;;;;23.55;38.87;99156.41;103142;1294;62281;-77
2024/04/17 03:14:32;;;;;;;;;;;;;;;23.54;38.91;99152.67;103119;1291;62195;-78
2024/04/17 03:16:58;;;;;;;;;;;;;;;23.54;39.00;99149.11;103108;1294;62205;-78
2024/04/17 03:19:23;;;;;;;;;;;;;;;23.54;38.84;99149.48;102848;1294;62268;-78
2024/04/17 03:21:49;;;;;;;;;;;;;;;23.54;38.86;99151.44;103108;1294;62249;-78
2024/04/17 03:24:14;;;;;;;;;;;;;;;23.54;38.87;99157.42;103164;1294;62185;-78
2024/04/17 03:26:40;;;;;;;;;;;;;;;23.53;38.86;99157.29;103011;1291;62175;-78
2024/04/17 03:29:05;;;;;;;;;;;;;;;23.54;38.94;99162.83;103154;1294;63414;-77
2024/04/17 03:31:31;;;;;;;;;;;;;;;23.53;38.98;99165.90;103152;1294;63304;-77
2024/04/17 03:33:58;;;;;;;;;;;;;;;23.52;39.00;99166.34;103153;1294;62194;-78
2024/04/17 03:36:23;;;;;;;;;;;;;;;23.52;38.96;99165.31;103245;1292;62209;-77
2024/04/17 03:38:49;;;;;;;;;;;;;;;23.52;39.10;99164.98;103122;1292;63261;-79
2024/04/17 03:41:14;;;;;;;;;;;;;;;23.51;39.10;99159.83;102861;1297;62272;-77
2024/04/17 03:43:40;;;;;;;;;;;;;;;23.51;39.03;99160.80;102903;1297;62530;-77
2024/04/17 03:46:05;;;;;;;;;;;;;;;23.50;39.08;99168.39;102774;1297;63354;-78
2024/04/17 03:48:31;;;;;;;;;;;;;;;23.50;39.10;99167.32;102844;1292;62292;-78
2024/04/17 03:50:57;;;;;;;;;;;;;;;23.50;39.08;99170.61;102878;1297;62124;-77
2024/04/17 03:53:25;;;;;;;;;;;;;;;23.49;39.23;99165.65;102815;1292;63240;-78
2024/04/17 03:55:51;;;;;;;;;;;;;;;23.49;39.25;99171.08;103060;1297;72602;-78
2024/04/17 03:58:17;;;;;;;;;;;;;;;23.48;39.22;99172.63;102816;1297;62261;-77
2024/04/17 04:00:42;;;;;;;;;;;;;;;23.47;39.28;99171.28;102817;1292;62221;-78
2024/04/17 04:03:08;;;;;;;;;;;;;;;23.46;39.27;99174.83;102970;1293;62201;-78
2024/04/17 04:05:34;;;;;;;;;;;;;;;23.41;39.37;99173.27;102865;1292;63246;-78
2024/04/17 04:07:59;;;;;;;;;;;;;;;23.37;39.55;99178.45;102917;1297;62180;-77
2024/04/17 04:10:25;;;;;;;;;;;;;;;23.32;39.65;99177.17;102945;1298;62230;-77
2024/04/17 04:12:51;;;;;;;;;;;;;;;23.30;39.74;99170.42;103059;1289;62266;-77
2024/04/17 04:15:16;;;;;;;;;;;;;;;23.28;39.84;99180.31;103066;1292;62171;-79
2024/04/17 04:17:42;;;;;;;;;;;;;;;23.26;39.86;99183.14;103106;1294;62264;-78
2024/04/17 04:20:07;;;;;;;;;;;;;;;23.26;39.92;99179.20;103112;1291;62292;-78
2024/04/17 04:22:33;;;;;;;;;;;;;;;23.25;39.91;99170.14;103244;1294;62193;-78
2024/04/17 04:24:58;;;;;;;;;;;;;;;23.24;39.91;99166.88;103107;1292;62240;-78
2024/04/17 04:27:24;;;;;;;;;;;;;;;23.22;40.01;99172.92;103012;1295;63430;-78
2024/04/17 04:29:49;;;;;;;;;;;;;;;23.21;40.05;99178.67;103084;1294;63483;-79
2024/04/17 04:32:15;;;;;;;;;;;;;;;23.19;40.11;99181.16;103111;1298;62274;-79
2024/04/17 04:34:40;;;;;;;;;;;;;;;23.19;40.27;99187.52;103253;1294;75269;-78
2024/04/17 04:37:07;;;;;;;;;;;;;;;23.18;40.23;99188.52;103241;1292;63328;-79
2024/04/17 04:39:32;;;;;;;;;;;;;;;23.18;40.22;99195.35;103502;1290;62079;-79
2024/04/17 04:41:58;;;;;;;;;;;;;;;23.18;40.23;99192.30;103290;1292;62125;-79
2024/04/17 04:44:23;;;;;;;;;;;;;;;23.18;40.28;99191.89;103457;1295;62153;-80
2024/04/17 04:46:51;;;;;;;;;;;;;;;23.19;40.23;99191.84;103860;1295;62191;-78
2024/04/17 04:49:16;;;;;;;;;;;;;;;23.19;40.20;99194.96;103505;1294;62232;-79
2024/04/17 04:51:42;;;;;;;;;;;;;;;23.19;40.28;99193.20;103626;1295;62249;-78
2024/04/17 04:54:08;;;;;;;;;;;;;;;23.18;40.41;99188.52;103480;1294;62217;-78
2024/04/17 04:56:33;;;;;;;;;;;;;;;23.13;40.41;99187.21;103762;1289;61946;-79
2024/04/17 04:58:59;;;;;;;;;;;;;;;23.11;40.60;99188.63;104278;1295;62181;-78
2024/04/17 05:01:24;;;;;;;;;;;;;;;23.11;40.65;99195.66;104838;1290;62002;-80
2024/04/17 05:03:50;;;;;;;;;;;;;;;23.08;40.74;99200.59;104926;1295;62101;-79
2024/04/17 05:06:15;;;;;;;;;;;;;;;23.05;40.84;99200.41;104795;1295;62086;-79
2024/04/17 05:08:41;;;;;;;;;;;;;;;23.03;40.95;99200.81;104913;1292;60144;-79
2024/04/17 05:11:09;;;;;;;;;;;;;;;22.99;41.12;99207.02;104843;1289;62088;-80
2024/04/17 05:13:34;;;;;;;;;;;;;;;22.91;41.26;99211.85;104795;1290;62078;-78
2024/04/17 05:16:00;;;;;;;;;;;;;;;22.92;41.43;99218.28;104834;1289;62208;-80
2024/04/17 05:18:25;;;;;;;;;;;;;;;22.95;41.30;99219.70;104578;1289;62299;-81
2024/04/17 05:20:51;;;;;;;;;;;;;;;22.99;41.36;99218.45;104845;1295;64389;-80
2024/04/17 05:23:16;;;;;;;;;;;;;;;23.02;41.41;99219.72;104896;1292;62197;-78
2024/04/17 05:25:44;;;;;;;;;;;;;;;23.05;41.37;99212.80;104749;1292;62050;-80
2024/04/17 05:28:09;;;;;;;;;;;;;;;23.07;41.34;99211.66;104602;1289;60456;-79
2024/04/17 05:30:35;;;;;;;;;;;;;;;23.08;41.37;99210.28;104335;1294;62246;-79
2024/04/17 05:33:00;;;;;;;;;;;;;;;23.08;41.42;99206.75;104602;1289;62139;-78
2024/04/17 05:35:26;;;;;;;;;;;;;;;23.05;41.50;99211.89;104332;1289;62346;-77
2024/04/17 05:37:52;;;;;;;;;;;;;;;23.06;41.56;99210.91;104459;1289;62197;-78
2024/04/17 05:40:27;;;;;;;;;;;;;;;23.06;41.59;99209.48;104747;1289;62235;-78
2024/04/17 05:43:05;;;;;;;;;;;;;;;23.05;41.65;99204.38;105018;1297;71058;-79
2024/04/17 05:45:51;;;;;;;;;;;;;;;23.05;41.67;99192.91;103748;1293;75372;-80
2024/04/17 05:48:17;;;;;;;;;;;;;;;23.05;41.63;99186.22;104558;1293;62193;-80
2024/04/17 05:50:42;;;;;;;;;;;;;;;23.05;41.70;99183.14;104630;1297;59932;-80
2024/04/17 05:53:08;;;;;;;;;;;;;;;23.05;41.90;99176.58;104388;1299;62345;-80
2024/04/17 05:55:34;;;;;;;;;;;;;;;23.04;41.91;99172.89;104575;1295;62103;-79
2024/04/17 05:58:00;;;;;;;;;;;;;;;23.02;41.93;99174.56;104455;1297;77082;-79
2024/04/17 06:00:25;;;;;;;;;;;;;;;22.97;42.04;99170.54;104335;1292;62283;-78
2024/04/17 06:02:51;;;;;;;;;;;;;;;22.94;42.05;99165.11;104175;1298;62057;-79
2024/04/17 06:05:16;;;;;;;;;;;;;;;22.92;41.99;99166.19;104676;1292;61980;-79
2024/04/17 06:07:42;;;;;;;;;;;;;;;22.93;42.09;99172.94;104359;1294;59767;-79
2024/04/17 06:10:08;;;;;;;;;;;;;;;22.96;42.07;99174.98;104475;1294;62039;-81
2024/04/17 06:12:34;;;;;;;;;;;;;;;22.98;42.08;99176.16;104487;1292;61893;-78
2024/04/17 06:14:59;;;;;;;;;;;;;;;23.01;42.01;99172.84;103863;1289;62193;-79
2024/04/17 06:17:26;;;;;;;;;;;;;;;23.01;42.07;99169.41;104141;1294;62137;-78
2024/04/17 06:19:52;;;;;;;;;;;;;;;23.02;42.08;99169.83;104151;1289;62070;-80
2024/04/17 06:22:19;;;;;;;;;;;;;;;23.03;42.03;99164.14;104180;1291;62217;-80
2024/04/17 06:24:44;;;;;;;;;;;;;;;23.03;42.02;99155.02;103876;1289;62104;-79
2024/04/17 06:27:10;;;;;;;;;;;;;;;23.01;42.02;99151.85;103830;1290;62283;-80
2024/04/17 06:29:36;;;;;;;;;;;;;;;23.01;42.02;99145.53;104033;1294;62240;-79
2024/04/17 06:32:01;;;;;;;;;;;;;;;23.02;41.99;99153.71;104509;1290;75308;-78
2024/04/17 06:34:27;;;;;;;;;;;;;;;23.02;41.99;99158.52;104190;1289;62208;-79
2024/04/17 06:36:52;;;;;;;;;;;;;;;23.02;41.99;99157.48;104168;1290;62085;-79
2024/04/17 06:39:18;;;;;;;;;;;;;;;23.02;42.03;99159.45;104094;1295;62116;-79
2024/04/17 06:41:44;;;;;;;;;;;;;;;23.01;42.06;99156.30;104074;1289;62136;-79
2024/04/17 06:44:12;;;;;;;;;;;;;;;23.02;41.99;99151.79;104071;1290;69056;-80
2024/04/17 06:46:38;;;;;;;;;;;;;;;23.01;41.98;99151.08;104144;1294;62175;-79
2024/04/17 06:49:03;;;;;;;;;;;;;;;23.02;41.99;99150.15;104129;1289;62095;-79
2024/04/17 06:51:29;;;;;;;;;;;;;;;23.01;41.94;99144.48;104329;1291;62262;-78
2024/04/17 06:53:54;;;;;;;;;;;;;;;23.00;41.98;99140.45;104482;1292;62237;-77
2024/04/17 06:56:21;;;;;;;;;;;;;;;22.99;42.04;99141.88;104375;1289;60281;-78
2024/04/17 06:58:46;;;;;;;;;;;;;;;22.98;42.12;99134.02;104279;1292;62188;-78
2024/04/17 07:01:12;;;;;;;;;;;;;;;22.97;42.20;99124.45;104154;1289;62165;-78
2024/04/17 07:03:38;;;;;;;;;;;;;;;23.00;42.19;99125.11;104256;1294;63398;-79
2024/04/17 07:06:05;;;;;;;;;;;;;;;23.03;42.19;99132.82;104760;1288;60373;-79
2024/04/17 07:08:31;;;;;;;;;;;;;;;23.08;42.34;99133.71;104632;1290;59942;-78
2024/04/17 07:10:57;;;;;;;;;;;;;;;23.11;42.32;99126.75;104550;1292;62267;-79
2024/04/17 07:13:22;;;;;;;;;;;;;;;23.13;42.23;99123.21;104359;1295;62331;-79
2024/04/17 07:15:48;;;;;;;;;;;;;;;23.12;42.21;99123.92;103873;1291;62155;-77
2024/04/17 07:18:13;;;;;;;;;;;;;;;23.11;42.19;99120.14;104331;1289;62226;-79
2024/04/17 07:20:39;;;;;;;;;;;;;;;23.10;42.18;99123.30;104509;1292;62172;-80
2024/04/17 07:23:04;;;;;;;;;;;;;;;23.09;42.19;99122.80;104457;1291;62194;-80
2024/04/17 07:25:30;;;;;;;;;;;;;;;23.10;42.15;99118.58;104346;1289;63428;-79
2024/04/17 07:27:55;;;;;;;;;;;;;;;23.09;42.14;99110.95;104178;1291;62115;-79
2024/04/17 07:30:21;;;;;;;;;;;;;;;23.10;42.13;99109.59;104326;1294;62135;-79
2024/04/17 07:32:48;;;;;;;;;;;;;;;23.13;42.21;99107.56;104240;1289;62203;-80
2024/04/17 07:35:14;;;;;;;;;;;;;;;23.13;42.07;99097.17;104477;1290;62182;-79
2024/04/17 07:37:40;;;;;;;;;;;;;;;23.06;42.09;99093.31;104499;1291;60531;-79
2024/04/17 07:40:06;;;;;;;;;;;;;;;23.06;42.12;99093.77;104584;1294;62244;-81
2024/04/17 07:42:32;;;;;;;;;;;;;;;23.06;42.08;99096.94;104332;1289;62563;-79
2024/04/17 07:44:57;;;;;;;;;;;;;;;23.05;42.06;99101.04;104613;1292;62223;-80
2024/04/17 07:47:23;;;;;;;;;;;;;;;23.03;42.13;99107.16;104780;1289;62168;-81
2024/04/17 07:49:50;;;;;;;;;;;;;;;23.03;42.12;99107.29;104482;1289;62232;-80
2024/04/17 07:52:15;;;;;;;;;;;;;;;23.03;42.06;99111.80;104626;1291;75278;-79
2024/04/17 07:54:41;;;;;;;;;;;;;;;23.01;42.09;99111.49;104627;1291;62070;-79
2024/04/17 07:57:07;;;;;;;;;;;;;;;22.98;42.32;99118.98;104287;1299;60657;-81
2024/04/17 07:59:32;;;;;;;;;;;;;;;22.99;42.39;99119.76;104365;1292;62040;-79
2024/04/17 08:01:58;;;;;;;;;;;;;;;23.01;42.39;99122.58;104457;1292;62091;-78
2024/04/17 08:04:23;;;;;;;;;;;;;;;23.03;42.51;99125.80;104373;1294;62097;-80
2024/04/17 08:06:49;;;;;;;;;;;;;;;23.05;42.50;99125.77;104679;1292;62152;-80
2024/04/17 08:09:15;;;;;;;;;;;;;;;23.06;42.53;99117.95;104382;1292;61990;-79
2024/04/17 08:11:40;;;;;;;;;;;;;;;23.05;42.56;99118.37;104674;1291;62197;-79
2024/04/17 08:14:06;;;;;;;;;;;;;;;23.07;42.63;99117.66;104643;1292;62051;-80
2024/04/17 08:16:31;;;;;;;;;;;;;;;23.09;42.77;99118.54;104583;1292;64485;-78
2024/04/17 08:18:57;;;;;;;;;;;;;;;23.10;42.70;99121.24;104180;1292;62137;-80
2024/04/17 08:21:23;;;;;;;;;;;;;;;23.11;42.61;99117.58;104322;1291;63421;-80
2024/04/17 08:23:48;;;;;;;;;;;;;;;23.12;42.56;99120.58;104309;1292;62120;-80
2024/04/17 08:26:14;;;;;;;;;;;;;;;23.13;42.49;99117.77;104481;1291;62444;-78
2024/04/17 08:28:40;;;;;;;;;;;;;;;23.13;42.45;99119.73;104502;1289;63290;-78
2024/04/17 08:31:06;;;;;;;;;;;;;;;23.14;42.44;99120.61;104376;1289;62206;-78
2024/04/17 08:33:31;;;;;;;;;;;;;;;23.13;42.46;99124.75;104012;1289;62098;-78
2024/04/17 08:35:57;;;;;;;;;;;;;;;23.14;42.49;99121.61;104808;1292;62161;-80
2024/04/17 08:38:23;;;;;;;;;;;;;;;23.15;42.63;99120.98;104552;1289;62188;-79
2024/04/17 08:40:50;;;;;;;;;;;;;;;23.16;42.53;99116.54;104596;1291;62207;-80
2024/04/17 08:43:23;;;;;;;;;;;;;;;23.17;42.57;99111.57;104040;1289;62398;-80
2024/04/17 08:45:50;;;;;;;;;;;;;;;23.19;42.65;99104.39;104277;1289;72362;-80
2024/04/17 08:48:16;;;;;;;;;;;;;;;23.20;42.74;99103.00;104608;1291;75184;-80
2024/04/17 08:50:42;;;;;;;;;;;;;;;23.21;42.69;99101.69;104836;1290;62197;-78
2024/04/17 08:53:07;;;;;;;;;;;;;;;23.20;42.96;99093.01;104612;1291;62181;-81
2024/04/17 08:55:33;;;;;;;;;;;;;;;23.17;43.14;99095.78;105385;1290;61989;-80
2024/04/17 08:57:59;;;;;;;;;;;;;;;23.20;43.48;99099.13;105354;1292;62262;-80
2024/04/17 09:00:25;;;;;;;;;;;;;;;23.24;43.81;99096.52;105506;1289;63293;-79
2024/04/17 09:02:55;;;;;;;;;;;;;;;23.25;43.95;99080.77;105412;1289;59959;-79
2024/04/17 09:05:21;;;;;;;;;;;;;;;23.24;44.14;99077.13;105489;1292;59785;-82
2024/04/17 09:07:46;;;;;;;;;;;;;;;23.22;44.30;99072.45;105407;1291;59957;-82
2024/04/17 09:10:12;;;;;;;;;;;;;;;23.23;44.47;99069.98;105101;1289;62190;-79
2024/04/17 09:12:38;;;;;;;;;;;;;;;23.23;44.60;99068.05;104975;1290;62207;-80
2024/04/17 09:15:04;;;;;;;;;;;;;;;23.19;44.69;99069.75;104714;1290;62188;-79
2024/04/17 09:17:30;;;;;;;;;;;;;;;23.14;44.86;99072.11;104408;1289;62107;-78
2024/04/17 09:19:55;;;;;;;;;;;;;;;23.08;44.87;99079.55;104799;1289;62191;-80
2024/04/17 09:22:21;;;;;;;;;;;;;;;23.01;44.97;99073.98;104959;1294;62096;-80
2024/04/17 09:24:46;;;;;;;;;;;;;;;23.00;45.08;99068.76;105303;1289;60462;-79
2024/04/17 09:27:15;;;;;;;;;;;;;;;23.00;45.06;99069.58;105623;1289;60214;-80
2024/04/17 09:29:41;;;;;;;;;;;;;;;22.98;45.06;99068.29;105631;1292;72676;-79
2024/04/17 09:32:18;;;;;;;;;;;;;;;22.94;45.06;99071.48;105279;1289;62178;-80
2024/04/17 09:34:44;;;;;;;;;;;;;;;22.92;45.16;99076.14;105211;1289;62795;-78
2024/04/17 09:37:13;;;;;;;;;;;;;;;22.91;45.28;99081.69;104961;1291;62145;-79
2024/04/17 09:39:39;;;;;;;;;;;;;;;22.92;45.39;99080.83;105000;1291;63806;-79
2024/04/17 09:42:06;;;;;;;;;;;;;;;22.94;45.37;99078.33;104941;1289;62133;-80
2024/04/17 09:44:31;;;;;;;;;;;;;;;22.96;45.34;99076.13;104625;1289;62257;-79
2024/04/17 09:46:57;;;;;;;;;;;;;;;23.00;45.38;99080.20;104900;1289;61514;-78
2024/04/17 09:49:26;;;;;;;;;;;;;;;23.03;45.34;99081.36;104851;1289;62098;-79
2024/04/17 09:51:54;;;;;;;;;;;;;;;23.02;45.39;99084.45;105028;1289;75153;-79
2024/04/17 09:54:19;;;;;;;;;;;;;;;23.03;45.48;99092.23;104965;1289;62124;-79
2024/04/17 09:56:45;;;;;;;;;;;;;;;23.05;45.45;99094.58;104874;1289;62066;-78
2024/04/17 09:59:10;;;;;;;;;;;;;;;23.04;45.41;99089.57;104913;1289;59806;-79
2024/04/17 10:01:36;;;;;;;;;;;;;;;23.06;45.41;99093.67;105181;1289;62121;-82
2024/04/17 10:04:02;;;;;;;;;;;;;;;23.10;45.37;99095.94;105275;1289;59648;-80
2024/04/17 10:06:28;;;;;;;;;;;;;;;23.13;45.57;99099.84;105319;1289;62150;-81
2024/04/17 10:08:54;;;;;;;;;;;;;;;23.14;45.54;99094.14;104803;1289;61958;-79
2024/04/17 10:11:19;;;;;;;;;;;;;;;23.14;45.62;99086.50;105239;1289;63462;-77
2024/04/17 10:13:45;;;;;;;;;;;;;;;23.14;45.60;99090.09;104991;1290;62046;-78
2024/04/17 10:16:11;;;;;;;;;;;;;;;23.13;45.63;99084.22;104845;1289;62194;-81
2024/04/17 10:18:36;;;;;;;;;;;;;;;23.13;45.60;99083.71;104652;1290;62171;-80
2024/04/17 10:21:02;;;;;;;;;;;;;;;23.13;45.64;99082.46;104711;1291;62108;-81
2024/04/17 10:23:27;;;;;;;;;;;;;;;23.14;45.59;99081.64;104465;1294;62121;-79
2024/04/17 10:25:57;;;;;;;;;;;;;;;23.17;45.58;99084.54;104255;1290;62207;-80
2024/04/17 10:28:23;;;;;;;;;;;;;;;23.18;45.46;99079.38;104531;1290;61962;-79
2024/04/17 10:30:49;;;;;;;;;;;;;;;23.18;45.47;99086.73;104518;1290;62114;-79
2024/04/17 10:33:21;;;;;;;;;;;;;;;23.17;45.45;99090.98;104207;1292;60825;-78
2024/04/17 10:35:48;;;;;;;;;;;;;;;23.17;45.37;99089.36;104430;1289;74973;-78
2024/04/17 10:38:15;;;;;;;;;;;;;;;23.16;45.32;99079.60;104176;1291;62084;-79
2024/04/17 10:40:40;;;;;;;;;;;;;;;23.15;45.30;99077.04;104309;1289;63285;-80
2024/04/17 10:43:06;;;;;;;;;;;;;;;23.12;45.35;99087.03;104430;1291;62422;-81
2024/04/17 10:45:31;;;;;;;;;;;;;;;23.10;45.45;99089.66;104363;1294;62204;-80
2024/04/17 10:48:03;;;;;;;;;;;;;;;23.09;45.51;99096.48;104436;1289;61880;-81
2024/04/17 10:50:30;;;;;;;;;;;;;;;23.07;45.67;99094.82;104490;1290;62044;-80
2024/04/17 10:52:56;;;;;;;;;;;;;;;23.06;45.70;99104.98;104382;1289;72732;-80
2024/04/17 10:55:22;;;;;;;;;;;;;;;23.06;45.81;99107.30;104358;1291;62242;-79
2024/04/17 10:57:47;;;;;;;;;;;;;;;23.05;45.91;99118.17;104513;1289;60005;-78
2024/04/17 11:00:16;;;;;;;;;;;;;;;23.05;45.91;99115.55;104415;1291;62204;-78
2024/04/17 11:02:41;;;;;;;;;;;;;;;23.07;46.08;99099.73;104887;1289;62265;-79
2024/04/17 11:05:07;;;;;;;;;;;;;;;23.05;46.11;99097.64;105099;1289;61938;-77
2024/04/17 11:07:32;;;;;;;;;;;;;;;23.01;46.39;99105.73;104377;1294;62171;-81
2024/04/17 11:09:58;;;;;;;;;;;;;;;23.00;46.62;99092.98;105020;1290;62053;-79
2024/04/17 11:12:24;;;;;;;;;;;;;;;22.96;46.68;99083.98;105305;1289;60453;-79
2024/04/17 11:14:58;;;;;;;;;;;;;;;22.94;46.89;99079.73;104957;1289;73692;-80
2024/04/17 11:17:24;;;;;;;;;;;;;;;22.92;47.10;99074.77;105343;1289;75184;-79
2024/04/17 11:19:49;;;;;;;;;;;;;;;22.87;47.17;99080.25;105063;1291;62176;-78
2024/04/17 11:22:15;;;;;;;;;;;;;;;22.84;47.39;99091.61;105388;1289;62028;-80
2024/04/17 11:24:47;;;;;;;;;;;;;;;22.82;47.47;99084.77;105661;1290;59881;-78
2024/04/17 11:27:16;;;;;;;;;;;;;;;22.84;47.42;99071.81;105533;1289;75273;-80
2024/04/17 11:29:47;;;;;;;;;;;;;;;22.86;47.43;99075.35;105621;1289;61348;-81
2024/04/17 11:32:13;;;;;;;;;;;;;;;22.88;47.44;99068.66;105595;1289;60201;-80
2024/04/17 11:34:39;;;;;;;;;;;;;;;22.87;47.55;99070.30;105591;1290;59855;-81
2024/04/17 11:37:05;;;;;;;;;;;;;;;22.87;47.53;99065.25;105528;1291;59925;-80
2024/04/17 11:39:30;;;;;;;;;;;;;;;22.88;47.52;99061.86;105506;1289;62821;-80
2024/04/17 11:41:56;;;;;;;;;;;;;;;22.90;47.57;99057.89;105457;1289;59888;-80
2024/04/17 11:44:21;;;;;;;;;;;;;;;22.92;47.53;99058.45;105433;1289;60683;-80
2024/04/17 11:46:47;;;;;;;;;;;;;;;22.94;47.49;99054.81;105493;1289;72824;-80
2024/04/17 11:49:12;;;;;;;;;;;;;;;22.96;47.53;99054.09;105363;1289;60757;-79
2024/04/17 11:51:38;;;;;;;;;;;;;;;22.97;47.42;99046.21;105475;1289;59945;-80
2024/04/17 11:54:04;;;;;;;;;;;;;;;22.99;47.41;99039.09;105435;1292;60148;-81
2024/04/17 11:56:29;;;;;;;;;;;;;;;22.96;47.50;99024.98;105455;1291;60480;-80
2024/04/17 11:58:55;;;;;;;;;;;;;;;22.97;47.55;99018.13;105418;1290;73394;-80
2024/04/17 12:01:20;;;;;;;;;;;;;;;22.99;47.61;99016.96;105311;1289;60170;-80
2024/04/17 12:03:46;;;;;;;;;;;;;;;22.99;47.64;99007.65;105582;1289;62049;-80
2024/04/17 12:06:11;;;;;;;;;;;;;;;22.98;47.77;99001.89;105606;1289;62086;-79
2024/04/17 12:08:37;;;;;;;;;;;;;;;22.94;47.84;99000.93;105484;1290;59930;-80
2024/04/17 12:11:03;;;;;;;;;;;;;;;22.90;47.94;99008.00;105447;1289;60607;-80
2024/04/17 12:13:28;;;;;;;;;;;;;;;22.88;48.04;99009.84;105447;1289;60579;-81
2024/04/17 12:15:54;;;;;;;;;;;;;;;22.87;48.03;99001.13;105407;1289;62087;-80
2024/04/17 12:18:20;;;;;;;;;;;;;;;22.89;48.03;99004.90;105608;1289;60086;-81
2024/04/17 12:20:46;;;;;;;;;;;;;;;22.91;48.03;99021.02;105513;1289;59779;-81
2024/04/17 12:23:18;;;;;;;;;;;;;;;22.93;48.01;99024.02;105372;1289;62182;-80
2024/04/17 12:28:31;;;;;;;;;;;;;;;22.97;47.82;99016.25;105399;1288;62549;-81
2024/04/17 12:30:56;;;;;;;;;;;;;;;22.98;47.85;99010.30;105323;1289;62105;-81
2024/04/17 12:33:22;;;;;;;;;;;;;;;23.00;47.84;99014.17;105310;1288;60486;-80
2024/04/17 12:35:48;;;;;;;;;;;;;;;23.02;47.74;99006.36;105048;1289;61961;-80